sensor_id;sensor_type;location;lat;lon;timestamp;pressure;altitude;pressure_sealevel;temperature;humidity
24160;BME280;62385;41.594;23.808;2022-12-29T00:01:25;96432.16;;;3.89;88.16
24160;BME280;62385;41.594;23.808;2022-12-29T00:03:51;96438.88;;;3.80;88.71
24160;BME280;62385;41.594;23.808;2022-12-29T00:06:17;96447.78;;;3.90;87.89
24160;BME280;62385;41.594;23.808;2022-12-29T00:08:42;96449.16;;;3.83;88.59
24160;BME280;62385;41.594;23.808;2022-12-29T00:11:12;96447.38;;;3.84;88.56
24160;BME280;62385;41.594;23.808;2022-12-29T00:13:39;96449.56;;;3.90;88.42
24160;BME280;62385;41.594;23.808;2022-12-29T00:16:24;96442.13;;;3.84;88.14
24160;BME280;62385;41.594;23.808;2022-12-29T00:18:49;96453.66;;;3.94;87.63
24160;BME280;62385;41.594;23.808;2022-12-29T00:21:17;96451.03;;;3.94;87.53
24160;BME280;62385;41.594;23.808;2022-12-29T00:24:02;96447.78;;;3.90;88.39
24160;BME280;62385;41.594;23.808;2022-12-29T00:26:49;96453.16;;;3.89;87.97
24160;BME280;62385;41.594;23.808;2022-12-29T00:29:37;96449.78;;;3.87;88.02
24160;BME280;62385;41.594;23.808;2022-12-29T00:32:21;96452.94;;;3.92;88.13
24160;BME280;62385;41.594;23.808;2022-12-29T00:35:09;96460.59;;;3.95;87.90
24160;BME280;62385;41.594;23.808;2022-12-29T00:37:40;96465.25;;;3.91;88.14
24160;BME280;62385;41.594;23.808;2022-12-29T00:40:27;96468.63;;;3.93;87.70
24160;BME280;62385;41.594;23.808;2022-12-29T00:43:11;96465.53;;;3.99;88.01
24160;BME280;62385;41.594;23.808;2022-12-29T00:45:55;96462.72;;;3.90;88.30
24160;BME280;62385;41.594;23.808;2022-12-29T00:48:21;96465.88;;;3.95;88.03
24160;BME280;62385;41.594;23.808;2022-12-29T00:51:07;96475.97;;;4.01;87.89
24160;BME280;62385;41.594;23.808;2022-12-29T00:53:33;96476.59;;;3.92;87.97
24160;BME280;62385;41.594;23.808;2022-12-29T00:55:59;96473.97;;;3.92;88.17
24160;BME280;62385;41.594;23.808;2022-12-29T00:58:29;96469.88;;;3.88;88.30
24160;BME280;62385;41.594;23.808;2022-12-29T01:01:03;96469.44;;;3.94;88.29
24160;BME280;62385;41.594;23.808;2022-12-29T01:03:29;96455.13;;;3.85;88.20
24160;BME280;62385;41.594;23.808;2022-12-29T01:05:55;96460.09;;;3.90;88.26
24160;BME280;62385;41.594;23.808;2022-12-29T01:08:22;96461.75;;;3.91;88.13
24160;BME280;62385;41.594;23.808;2022-12-29T01:10:58;96459.88;;;3.93;88.07
24160;BME280;62385;41.594;23.808;2022-12-29T01:13:23;96463.13;;;3.96;87.37
24160;BME280;62385;41.594;23.808;2022-12-29T01:15:53;96461.91;;;3.89;87.91
24160;BME280;62385;41.594;23.808;2022-12-29T01:18:19;96459.13;;;3.91;88.10
24160;BME280;62385;41.594;23.808;2022-12-29T01:20:45;96463.66;;;4.01;87.58
24160;BME280;62385;41.594;23.808;2022-12-29T01:23:11;96458.28;;;4.03;87.47
24160;BME280;62385;41.594;23.808;2022-12-29T01:25:36;96455.44;;;4.06;87.58
24160;BME280;62385;41.594;23.808;2022-12-29T01:28:02;96450.41;;;4.03;87.71
24160;BME280;62385;41.594;23.808;2022-12-29T01:30:28;96444.84;;;3.95;87.90
24160;BME280;62385;41.594;23.808;2022-12-29T01:32:53;96449.69;;;3.88;88.61
24160;BME280;62385;41.594;23.808;2022-12-29T01:35:19;96447.16;;;3.87;88.67
24160;BME280;62385;41.594;23.808;2022-12-29T01:37:45;96443.59;;;3.88;88.51
24160;BME280;62385;41.594;23.808;2022-12-29T01:40:11;96434.88;;;3.75;89.29
24160;BME280;62385;41.594;23.808;2022-12-29T01:42:37;96431.00;;;3.80;88.84
24160;BME280;62385;41.594;23.808;2022-12-29T01:45:09;96430.88;;;3.94;88.35
24160;BME280;62385;41.594;23.808;2022-12-29T01:50:09;96413.97;;;3.86;88.60
24160;BME280;62385;41.594;23.808;2022-12-29T01:52:42;96410.16;;;3.90;88.37
24160;BME280;62385;41.594;23.808;2022-12-29T01:55:12;96411.75;;;3.92;88.40
24160;BME280;62385;41.594;23.808;2022-12-29T01:57:40;96408.19;;;3.93;88.05
24160;BME280;62385;41.594;23.808;2022-12-29T02:00:12;96398.19;;;3.98;88.37
24160;BME280;62385;41.594;23.808;2022-12-29T02:02:42;96402.13;;;3.80;89.14
24160;BME280;62385;41.594;23.808;2022-12-29T02:05:27;96395.91;;;3.81;88.58
24160;BME280;62385;41.594;23.808;2022-12-29T02:07:54;96392.47;;;3.81;88.74
24160;BME280;62385;41.594;23.808;2022-12-29T02:10:21;96380.69;;;3.73;88.60
24160;BME280;62385;41.594;23.808;2022-12-29T02:12:49;96389.19;;;3.64;89.53
24160;BME280;62385;41.594;23.808;2022-12-29T02:15:15;96384.38;;;3.58;89.86
24160;BME280;62385;41.594;23.808;2022-12-29T02:17:53;96389.63;;;3.58;89.89
24160;BME280;62385;41.594;23.808;2022-12-29T02:31:27;96411.78;;;3.29;90.50
24160;BME280;62385;41.594;23.808;2022-12-29T02:34:25;96409.38;;;3.39;89.80
24160;BME280;62385;41.594;23.808;2022-12-29T02:39:30;96410.06;;;3.03;90.81
24160;BME280;62385;41.594;23.808;2022-12-29T02:47:23;96393.69;;;2.99;90.65
24160;BME280;62385;41.594;23.808;2022-12-29T02:50:15;96400.59;;;2.88;90.60
24160;BME280;62385;41.594;23.808;2022-12-29T02:52:49;96401.53;;;2.87;90.62
24160;BME280;62385;41.594;23.808;2022-12-29T02:55:16;96395.44;;;2.86;90.27
24160;BME280;62385;41.594;23.808;2022-12-29T02:57:42;96393.88;;;2.84;90.07
24160;BME280;62385;41.594;23.808;2022-12-29T03:00:09;96385.34;;;2.67;90.86
24160;BME280;62385;41.594;23.808;2022-12-29T03:13:47;96394.13;;;1.86;89.92
24160;BME280;62385;41.594;23.808;2022-12-29T03:16:50;96398.22;;;1.90;90.32
24160;BME280;62385;41.594;23.808;2022-12-29T03:19:28;96382.25;;;1.66;90.12
24160;BME280;62385;41.594;23.808;2022-12-29T03:22:05;96394.97;;;1.72;89.50
24160;BME280;62385;41.594;23.808;2022-12-29T03:25:23;96396.31;;;1.65;89.78
24160;BME280;62385;41.594;23.808;2022-12-29T03:28:13;96384.88;;;1.66;89.67
24160;BME280;62385;41.594;23.808;2022-12-29T03:30:45;96397.97;;;1.66;89.49
24160;BME280;62385;41.594;23.808;2022-12-29T03:33:16;96409.94;;;1.56;89.22
24160;BME280;62385;41.594;23.808;2022-12-29T03:35:44;96407.13;;;1.45;89.00
24160;BME280;62385;41.594;23.808;2022-12-29T03:38:19;96394.59;;;1.50;89.67
24160;BME280;62385;41.594;23.808;2022-12-29T03:40:51;96390.31;;;1.35;88.76
24160;BME280;62385;41.594;23.808;2022-12-29T03:43:17;96399.56;;;1.41;89.28
24160;BME280;62385;41.594;23.808;2022-12-29T03:45:45;96403.97;;;1.40;88.96
24160;BME280;62385;41.594;23.808;2022-12-29T03:48:12;96407.13;;;1.31;89.06
24160;BME280;62385;41.594;23.808;2022-12-29T03:50:39;96418.44;;;1.46;88.85
24160;BME280;62385;41.594;23.808;2022-12-29T03:53:05;96410.78;;;1.43;88.85
24160;BME280;62385;41.594;23.808;2022-12-29T03:55:31;96415.28;;;1.41;88.46
24160;BME280;62385;41.594;23.808;2022-12-29T03:57:58;96423.78;;;1.44;88.94
24160;BME280;62385;41.594;23.808;2022-12-29T04:00:37;96410.31;;;1.64;89.58
24160;BME280;62385;41.594;23.808;2022-12-29T04:03:04;96418.34;;;1.61;89.61
24160;BME280;62385;41.594;23.808;2022-12-29T04:05:29;96414.22;;;1.71;89.42
24160;BME280;62385;41.594;23.808;2022-12-29T04:07:56;96407.31;;;1.70;89.16
24160;BME280;62385;41.594;23.808;2022-12-29T04:10:22;96407.66;;;1.78;89.06
24160;BME280;62385;41.594;23.808;2022-12-29T04:12:51;96418.06;;;1.66;89.24
24160;BME280;62385;41.594;23.808;2022-12-29T04:15:16;96421.50;;;1.66;89.70
24160;BME280;62385;41.594;23.808;2022-12-29T04:17:42;96425.09;;;1.65;89.18
24160;BME280;62385;41.594;23.808;2022-12-29T04:20:08;96435.16;;;1.71;89.17
24160;BME280;62385;41.594;23.808;2022-12-29T04:23:00;96436.53;;;1.91;89.19
24160;BME280;62385;41.594;23.808;2022-12-29T04:25:26;96428.88;;;1.88;88.91
24160;BME280;62385;41.594;23.808;2022-12-29T04:27:52;96445.81;;;1.82;89.45
24160;BME280;62385;41.594;23.808;2022-12-29T04:30:37;96432.81;;;1.95;88.98
24160;BME280;62385;41.594;23.808;2022-12-29T04:33:09;96441.78;;;2.05;89.45
24160;BME280;62385;41.594;23.808;2022-12-29T04:35:38;96437.34;;;2.20;89.70
24160;BME280;62385;41.594;23.808;2022-12-29T04:38:03;96438.84;;;2.24;90.35
24160;BME280;62385;41.594;23.808;2022-12-29T04:40:29;96427.41;;;2.39;90.44
24160;BME280;62385;41.594;23.808;2022-12-29T04:42:55;96418.19;;;2.46;90.17
24160;BME280;62385;41.594;23.808;2022-12-29T04:45:22;96423.22;;;2.49;90.06
24160;BME280;62385;41.594;23.808;2022-12-29T04:47:52;96419.22;;;2.70;89.49
24160;BME280;62385;41.594;23.808;2022-12-29T04:50:49;96413.50;;;2.51;90.28
24160;BME280;62385;41.594;23.808;2022-12-29T04:53:18;96420.75;;;2.33;89.83
24160;BME280;62385;41.594;23.808;2022-12-29T04:55:44;96429.25;;;2.37;89.97
24160;BME280;62385;41.594;23.808;2022-12-29T04:58:10;96438.94;;;2.22;89.67
24160;BME280;62385;41.594;23.808;2022-12-29T05:00:36;96434.22;;;2.01;89.81
24160;BME280;62385;41.594;23.808;2022-12-29T05:03:02;96437.47;;;2.04;90.07
24160;BME280;62385;41.594;23.808;2022-12-29T05:05:28;96436.63;;;2.04;89.97
24160;BME280;62385;41.594;23.808;2022-12-29T05:07:55;96444.03;;;1.83;90.10
24160;BME280;62385;41.594;23.808;2022-12-29T05:10:20;96444.63;;;1.60;89.67
24160;BME280;62385;41.594;23.808;2022-12-29T05:12:48;96455.53;;;1.52;89.77
24160;BME280;62385;41.594;23.808;2022-12-29T05:15:14;96450.97;;;1.56;89.57
24160;BME280;62385;41.594;23.808;2022-12-29T05:18:15;96452.56;;;1.44;89.89
24160;BME280;62385;41.594;23.808;2022-12-29T05:20:41;96458.88;;;1.26;91.38
24160;BME280;62385;41.594;23.808;2022-12-29T05:23:07;96454.81;;;1.06;91.42
24160;BME280;62385;41.594;23.808;2022-12-29T05:25:34;96458.53;;;1.02;92.20
24160;BME280;62385;41.594;23.808;2022-12-29T05:28:25;96471.16;;;1.10;91.01
24160;BME280;62385;41.594;23.808;2022-12-29T05:30:57;96463.84;;;1.01;91.21
24160;BME280;62385;41.594;23.808;2022-12-29T05:33:24;96463.44;;;0.92;91.22
24160;BME280;62385;41.594;23.808;2022-12-29T05:35:50;96463.63;;;0.89;91.33
24160;BME280;62385;41.594;23.808;2022-12-29T05:38:17;96465.03;;;0.65;91.91
24160;BME280;62385;41.594;23.808;2022-12-29T05:40:43;96466.44;;;0.86;91.96
24160;BME280;62385;41.594;23.808;2022-12-29T05:43:41;96483.31;;;0.65;91.96
24160;BME280;62385;41.594;23.808;2022-12-29T05:46:14;96470.25;;;0.65;91.10
24160;BME280;62385;41.594;23.808;2022-12-29T05:49:02;96471.00;;;0.67;90.59
24160;BME280;62385;41.594;23.808;2022-12-29T05:55:11;96472.06;;;0.79;89.64
24160;BME280;62385;41.594;23.808;2022-12-29T05:57:39;96465.91;;;0.80;89.21
24160;BME280;62385;41.594;23.808;2022-12-29T06:00:10;96467.78;;;0.62;89.35
24160;BME280;62385;41.594;23.808;2022-12-29T06:02:45;96473.03;;;0.62;89.29
24160;BME280;62385;41.594;23.808;2022-12-29T06:05:10;96467.75;;;0.48;89.20
24160;BME280;62385;41.594;23.808;2022-12-29T06:07:37;96467.31;;;0.56;88.84
24160;BME280;62385;41.594;23.808;2022-12-29T06:10:05;96468.75;;;0.61;88.60
24160;BME280;62385;41.594;23.808;2022-12-29T06:12:34;96479.03;;;0.64;88.15
24160;BME280;62385;41.594;23.808;2022-12-29T06:15:00;96474.38;;;0.69;88.62
24160;BME280;62385;41.594;23.808;2022-12-29T06:17:26;96477.66;;;0.73;88.70
24160;BME280;62385;41.594;23.808;2022-12-29T06:19:51;96473.19;;;0.59;89.13
24160;BME280;62385;41.594;23.808;2022-12-29T06:22:18;96480.75;;;0.79;88.82
24160;BME280;62385;41.594;23.808;2022-12-29T06:24:44;96484.66;;;0.72;88.73
24160;BME280;62385;41.594;23.808;2022-12-29T06:27:10;96485.44;;;0.74;88.29
24160;BME280;62385;41.594;23.808;2022-12-29T06:29:37;96485.56;;;0.71;88.60
24160;BME280;62385;41.594;23.808;2022-12-29T06:32:05;96491.72;;;0.86;88.62
24160;BME280;62385;41.594;23.808;2022-12-29T06:34:50;96501.50;;;0.82;88.27
24160;BME280;62385;41.594;23.808;2022-12-29T06:37:16;96498.75;;;0.70;88.70
24160;BME280;62385;41.594;23.808;2022-12-29T06:39:41;96498.50;;;0.74;88.88
24160;BME280;62385;41.594;23.808;2022-12-29T06:42:11;96500.47;;;0.85;88.90
24160;BME280;62385;41.594;23.808;2022-12-29T06:44:39;96503.69;;;0.90;89.36
24160;BME280;62385;41.594;23.808;2022-12-29T06:47:08;96506.13;;;1.23;88.71
24160;BME280;62385;41.594;23.808;2022-12-29T06:49:34;96501.09;;;1.20;88.73
24160;BME280;62385;41.594;23.808;2022-12-29T06:52:01;96503.00;;;1.16;89.26
24160;BME280;62385;41.594;23.808;2022-12-29T06:54:29;96509.13;;;1.31;89.21
24160;BME280;62385;41.594;23.808;2022-12-29T06:56:55;96511.09;;;1.42;88.62
24160;BME280;62385;41.594;23.808;2022-12-29T06:59:21;96509.84;;;1.49;88.34
24160;BME280;62385;41.594;23.808;2022-12-29T07:01:47;96506.53;;;1.45;88.70
24160;BME280;62385;41.594;23.808;2022-12-29T07:04:12;96502.81;;;1.49;88.85
24160;BME280;62385;41.594;23.808;2022-12-29T07:06:38;96509.25;;;1.58;89.14
24160;BME280;62385;41.594;23.808;2022-12-29T07:09:06;96523.03;;;1.75;89.23
24160;BME280;62385;41.594;23.808;2022-12-29T07:11:33;96511.09;;;1.85;89.06
24160;BME280;62385;41.594;23.808;2022-12-29T07:13:59;96518.41;;;1.95;88.55
24160;BME280;62385;41.594;23.808;2022-12-29T07:16:24;96516.78;;;2.06;89.32
24160;BME280;62385;41.594;23.808;2022-12-29T07:18:51;96532.22;;;1.97;89.81
24160;BME280;62385;41.594;23.808;2022-12-29T07:21:17;96523.34;;;1.85;90.34
24160;BME280;62385;41.594;23.808;2022-12-29T07:23:43;96521.94;;;1.94;90.74
24160;BME280;62385;41.594;23.808;2022-12-29T07:26:12;96526.06;;;1.98;90.88
24160;BME280;62385;41.594;23.808;2022-12-29T07:28:38;96523.63;;;1.80;90.10
24160;BME280;62385;41.594;23.808;2022-12-29T07:31:05;96533.53;;;2.04;91.00
24160;BME280;62385;41.594;23.808;2022-12-29T07:33:32;96533.69;;;1.86;90.21
24160;BME280;62385;41.594;23.808;2022-12-29T07:35:58;96535.13;;;2.06;90.84
24160;BME280;62385;41.594;23.808;2022-12-29T07:38:24;96534.00;;;2.10;90.85
24160;BME280;62385;41.594;23.808;2022-12-29T07:40:50;96521.00;;;1.95;90.41
24160;BME280;62385;41.594;23.808;2022-12-29T07:43:15;96532.88;;;2.14;90.77
24160;BME280;62385;41.594;23.808;2022-12-29T07:45:53;96533.25;;;2.22;91.24
24160;BME280;62385;41.594;23.808;2022-12-29T07:48:22;96531.44;;;2.37;90.68
24160;BME280;62385;41.594;23.808;2022-12-29T07:50:48;96519.09;;;2.39;90.38
24160;BME280;62385;41.594;23.808;2022-12-29T07:53:14;96520.03;;;2.38;90.13
24160;BME280;62385;41.594;23.808;2022-12-29T07:55:39;96525.59;;;2.19;90.51
24160;BME280;62385;41.594;23.808;2022-12-29T07:58:05;96522.56;;;2.11;90.69
24160;BME280;62385;41.594;23.808;2022-12-29T08:00:30;96531.66;;;2.20;91.45
24160;BME280;62385;41.594;23.808;2022-12-29T08:02:57;96518.63;;;2.47;90.56
24160;BME280;62385;41.594;23.808;2022-12-29T08:05:23;96514.44;;;2.44;90.35
24160;BME280;62385;41.594;23.808;2022-12-29T08:07:48;96515.00;;;2.35;90.50
24160;BME280;62385;41.594;23.808;2022-12-29T08:10:15;96518.84;;;2.70;90.46
24160;BME280;62385;41.594;23.808;2022-12-29T08:12:41;96515.44;;;2.83;90.51
24160;BME280;62385;41.594;23.808;2022-12-29T08:15:09;96518.59;;;2.88;90.28
24160;BME280;62385;41.594;23.808;2022-12-29T08:17:35;96512.81;;;3.09;90.21
24160;BME280;62385;41.594;23.808;2022-12-29T08:20:01;96512.22;;;3.18;89.55
24160;BME280;62385;41.594;23.808;2022-12-29T08:22:26;96518.16;;;3.08;90.14
24160;BME280;62385;41.594;23.808;2022-12-29T08:24:52;96510.78;;;3.00;89.91
24160;BME280;62385;41.594;23.808;2022-12-29T08:27:18;96516.75;;;2.90;90.66
24160;BME280;62385;41.594;23.808;2022-12-29T08:29:44;96508.53;;;3.21;90.07
24160;BME280;62385;41.594;23.808;2022-12-29T08:32:11;96510.13;;;3.36;89.54
24160;BME280;62385;41.594;23.808;2022-12-29T08:34:37;96505.75;;;3.37;88.90
24160;BME280;62385;41.594;23.808;2022-12-29T08:37:02;96512.09;;;3.59;88.98
24160;BME280;62385;41.594;23.808;2022-12-29T08:39:28;96515.97;;;3.54;88.04
24160;BME280;62385;41.594;23.808;2022-12-29T08:41:54;96519.63;;;3.51;88.27
24160;BME280;62385;41.594;23.808;2022-12-29T08:44:20;96519.53;;;3.65;88.32
24160;BME280;62385;41.594;23.808;2022-12-29T08:46:46;96526.19;;;3.84;88.17
24160;BME280;62385;41.594;23.808;2022-12-29T08:49:11;96523.56;;;3.84;88.78
24160;BME280;62385;41.594;23.808;2022-12-29T08:51:37;96509.06;;;3.91;87.25
24160;BME280;62385;41.594;23.808;2022-12-29T08:54:03;96510.94;;;3.76;87.48
24160;BME280;62385;41.594;23.808;2022-12-29T08:56:28;96511.69;;;3.91;87.20
24160;BME280;62385;41.594;23.808;2022-12-29T08:58:56;96504.22;;;3.97;87.64
24160;BME280;62385;41.594;23.808;2022-12-29T09:01:23;96498.84;;;3.99;87.56
24160;BME280;62385;41.594;23.808;2022-12-29T09:03:49;96489.41;;;3.84;87.82
24160;BME280;62385;41.594;23.808;2022-12-29T09:06:16;96484.03;;;3.85;87.79
24160;BME280;62385;41.594;23.808;2022-12-29T09:08:42;96485.63;;;3.88;88.32
24160;BME280;62385;41.594;23.808;2022-12-29T09:11:10;96485.09;;;4.08;88.88
24160;BME280;62385;41.594;23.808;2022-12-29T09:13:36;96464.97;;;4.19;87.75
24160;BME280;62385;41.594;23.808;2022-12-29T09:16:02;96475.09;;;4.13;87.91
24160;BME280;62385;41.594;23.808;2022-12-29T09:18:28;96466.03;;;4.30;87.85
24160;BME280;62385;41.594;23.808;2022-12-29T09:20:59;96472.78;;;4.57;86.74
24160;BME280;62385;41.594;23.808;2022-12-29T09:23:25;96468.25;;;4.59;86.74
24160;BME280;62385;41.594;23.808;2022-12-29T09:25:51;96454.31;;;4.70;85.93
24160;BME280;62385;41.594;23.808;2022-12-29T09:28:16;96448.84;;;4.73;86.01
24160;BME280;62385;41.594;23.808;2022-12-29T09:30:42;96436.75;;;4.94;85.39
24160;BME280;62385;41.594;23.808;2022-12-29T09:33:07;96437.00;;;5.02;84.54
24160;BME280;62385;41.594;23.808;2022-12-29T09:35:33;96433.25;;;5.18;83.26
24160;BME280;62385;41.594;23.808;2022-12-29T09:37:59;96431.44;;;5.18;84.94
24160;BME280;62385;41.594;23.808;2022-12-29T09:40:30;96422.78;;;5.40;83.86
24160;BME280;62385;41.594;23.808;2022-12-29T09:46:41;96427.09;;;5.41;82.94
24160;BME280;62385;41.594;23.808;2022-12-29T09:51:42;96412.84;;;5.43;85.01
24160;BME280;62385;41.594;23.808;2022-12-29T09:57:28;96418.41;;;5.74;83.88
24160;BME280;62385;41.594;23.808;2022-12-29T10:00:00;96410.84;;;5.80;83.55
24160;BME280;62385;41.594;23.808;2022-12-29T10:02:44;96408.22;;;5.80;82.15
24160;BME280;62385;41.594;23.808;2022-12-29T10:05:29;96410.78;;;5.93;81.90
24160;BME280;62385;41.594;23.808;2022-12-29T10:18:47;96396.59;;;6.38;78.99
24160;BME280;62385;41.594;23.808;2022-12-29T10:21:31;96401.16;;;6.36;78.72
24160;BME280;62385;41.594;23.808;2022-12-29T10:24:02;96381.19;;;6.55;77.68
24160;BME280;62385;41.594;23.808;2022-12-29T10:26:33;96384.50;;;6.79;77.00
24160;BME280;62385;41.594;23.808;2022-12-29T10:31:44;96370.03;;;6.94;75.65
24160;BME280;62385;41.594;23.808;2022-12-29T10:34:22;96358.84;;;7.22;74.68
24160;BME280;62385;41.594;23.808;2022-12-29T10:36:54;96363.47;;;7.51;72.60
24160;BME280;62385;41.594;23.808;2022-12-29T10:39:45;96365.66;;;7.46;74.03
24160;BME280;62385;41.594;23.808;2022-12-29T10:44:49;96356.09;;;7.54;73.04
24160;BME280;62385;41.594;23.808;2022-12-29T10:47:22;96355.59;;;7.91;70.83
24160;BME280;62385;41.594;23.808;2022-12-29T10:49:50;96356.53;;;8.20;69.81
24160;BME280;62385;41.594;23.808;2022-12-29T10:52:16;96353.53;;;8.34;70.27
24160;BME280;62385;41.594;23.808;2022-12-29T10:54:57;96351.19;;;8.50;70.20
24160;BME280;62385;41.594;23.808;2022-12-29T10:57:37;96346.47;;;8.63;69.77
24160;BME280;62385;41.594;23.808;2022-12-29T11:08:27;96319.19;;;8.72;68.23
24160;BME280;62385;41.594;23.808;2022-12-29T11:11:03;96306.50;;;8.76;68.06
24160;BME280;62385;41.594;23.808;2022-12-29T11:13:31;96306.09;;;8.80;68.68
24160;BME280;62385;41.594;23.808;2022-12-29T11:15:57;96300.06;;;8.50;69.04
24160;BME280;62385;41.594;23.808;2022-12-29T11:21:05;96303.00;;;8.47;71.58
24160;BME280;62385;41.594;23.808;2022-12-29T11:23:39;96302.72;;;8.40;71.88
24160;BME280;62385;41.594;23.808;2022-12-29T11:26:19;96311.81;;;8.57;73.08
24160;BME280;62385;41.594;23.808;2022-12-29T11:31:44;96299.97;;;8.90;69.86
24160;BME280;62385;41.594;23.808;2022-12-29T11:36:47;96298.00;;;8.63;71.38
24160;BME280;62385;41.594;23.808;2022-12-29T11:42:13;96285.72;;;9.00;70.68
24160;BME280;62385;41.594;23.808;2022-12-29T11:44:43;96281.75;;;9.23;70.59
24160;BME280;62385;41.594;23.808;2022-12-29T11:47:19;96287.06;;;9.23;69.79
24160;BME280;62385;41.594;23.808;2022-12-29T11:49:52;96287.88;;;9.34;69.19
24160;BME280;62385;41.594;23.808;2022-12-29T11:52:24;96291.13;;;9.18;70.08
24160;BME280;62385;41.594;23.808;2022-12-29T11:54:51;96290.66;;;9.32;69.55
24160;BME280;62385;41.594;23.808;2022-12-29T11:57:19;96278.47;;;9.49;68.56
24160;BME280;62385;41.594;23.808;2022-12-29T11:59:51;96280.75;;;9.81;69.39
24160;BME280;62385;41.594;23.808;2022-12-29T12:04:47;96269.50;;;9.96;69.30
24160;BME280;62385;41.594;23.808;2022-12-29T12:07:24;96273.13;;;9.68;70.38
24160;BME280;62385;41.594;23.808;2022-12-29T12:10:01;96269.53;;;9.59;70.25
24160;BME280;62385;41.594;23.808;2022-12-29T12:12:39;96265.84;;;9.70;70.28
24160;BME280;62385;41.594;23.808;2022-12-29T12:15:15;96252.03;;;9.76;69.53
24160;BME280;62385;41.594;23.808;2022-12-29T12:18:04;96256.56;;;10.11;68.67
24160;BME280;62385;41.594;23.808;2022-12-29T12:25:56;96257.84;;;9.52;70.17
24160;BME280;62385;41.594;23.808;2022-12-29T12:30:56;96246.00;;;9.74;70.14
24160;BME280;62385;41.594;23.808;2022-12-29T12:33:36;96238.59;;;10.05;68.75
24160;BME280;62385;41.594;23.808;2022-12-29T12:38:55;96234.09;;;10.33;66.56
24160;BME280;62385;41.594;23.808;2022-12-29T12:58:43;96222.75;;;10.23;67.02
24160;BME280;62385;41.594;23.808;2022-12-29T13:22:56;96244.78;;;9.96;67.79
24160;BME280;62385;41.594;23.808;2022-12-29T13:28:09;96234.50;;;10.10;66.83
24160;BME280;62385;41.594;23.808;2022-12-29T13:36:29;96245.00;;;9.85;66.99
24160;BME280;62385;41.594;23.808;2022-12-29T13:39:05;96244.84;;;9.86;66.91
24160;BME280;62385;41.594;23.808;2022-12-29T13:41:39;96244.84;;;9.86;67.04
24160;BME280;62385;41.594;23.808;2022-12-29T13:44:14;96247.13;;;9.81;67.46
24160;BME280;62385;41.594;23.808;2022-12-29T13:46:43;96242.63;;;9.82;66.79
24160;BME280;62385;41.594;23.808;2022-12-29T13:49:17;96248.50;;;9.85;65.93
24160;BME280;62385;41.594;23.808;2022-12-29T13:51:58;96245.03;;;9.75;66.87
24160;BME280;62385;41.594;23.808;2022-12-29T13:54:32;96253.31;;;9.90;66.52
24160;BME280;62385;41.594;23.808;2022-12-29T13:57:44;96249.41;;;9.66;66.73
24160;BME280;62385;41.594;23.808;2022-12-29T14:00:19;96246.78;;;9.57;67.42
24160;BME280;62385;41.594;23.808;2022-12-29T14:07:46;96251.41;;;9.55;67.86
24160;BME280;62385;41.594;23.808;2022-12-29T14:10:35;96249.94;;;9.43;68.33
24160;BME280;62385;41.594;23.808;2022-12-29T14:13:14;96253.31;;;9.35;68.54
24160;BME280;62385;41.594;23.808;2022-12-29T14:15:43;96250.06;;;9.41;68.74
24160;BME280;62385;41.594;23.808;2022-12-29T14:18:24;96256.69;;;9.18;69.65
24160;BME280;62385;41.594;23.808;2022-12-29T14:23:41;96253.94;;;9.10;70.16
24160;BME280;62385;41.594;23.808;2022-12-29T14:28:56;96253.53;;;8.95;70.65
24160;BME280;62385;41.594;23.808;2022-12-29T14:31:40;96262.47;;;8.85;71.64
24160;BME280;62385;41.594;23.808;2022-12-29T14:39:00;96258.44;;;8.80;70.27
24160;BME280;62385;41.594;23.808;2022-12-29T14:41:30;96268.44;;;8.87;70.40
24160;BME280;62385;41.594;23.808;2022-12-29T14:44:01;96266.50;;;8.79;70.32
24160;BME280;62385;41.594;23.808;2022-12-29T14:49:17;96259.41;;;8.70;70.91
24160;BME280;62385;41.594;23.808;2022-12-29T14:51:45;96260.41;;;8.69;70.74
24160;BME280;62385;41.594;23.808;2022-12-29T14:57:07;96260.00;;;8.45;72.00
24160;BME280;62385;41.594;23.808;2022-12-29T14:59:36;96267.03;;;8.15;73.76
24160;BME280;62385;41.594;23.808;2022-12-29T15:02:05;96265.03;;;7.98;74.40
24160;BME280;62385;41.594;23.808;2022-12-29T15:04:39;96261.84;;;7.95;75.02
24160;BME280;62385;41.594;23.808;2022-12-29T15:07:09;96269.44;;;7.88;74.51
24160;BME280;62385;41.594;23.808;2022-12-29T15:10:06;96261.75;;;7.75;74.70
24160;BME280;62385;41.594;23.808;2022-12-29T15:12:41;96274.00;;;7.76;74.80
24160;BME280;62385;41.594;23.808;2022-12-29T15:15:27;96267.88;;;7.36;76.41
24160;BME280;62385;41.594;23.808;2022-12-29T15:17:55;96268.59;;;7.17;76.94
24160;BME280;62385;41.594;23.808;2022-12-29T15:20:31;96259.88;;;6.96;77.31
24160;BME280;62385;41.594;23.808;2022-12-29T15:23:00;96273.88;;;6.87;77.14
24160;BME280;62385;41.594;23.808;2022-12-29T15:25:27;96269.47;;;6.76;77.89
24160;BME280;62385;41.594;23.808;2022-12-29T15:27:58;96270.38;;;6.66;78.09
24160;BME280;62385;41.594;23.808;2022-12-29T15:30:25;96264.44;;;6.53;78.40
24160;BME280;62385;41.594;23.808;2022-12-29T15:32:51;96273.38;;;6.40;78.23
24160;BME280;62385;41.594;23.808;2022-12-29T15:35:37;96265.81;;;6.36;78.48
24160;BME280;62385;41.594;23.808;2022-12-29T15:38:14;96269.59;;;6.22;78.53
24160;BME280;62385;41.594;23.808;2022-12-29T15:40:44;96274.44;;;6.06;78.55
24160;BME280;62385;41.594;23.808;2022-12-29T15:43:26;96279.75;;;5.84;78.40
24160;BME280;62385;41.594;23.808;2022-12-29T15:45:56;96289.31;;;5.74;79.42
24160;BME280;62385;41.594;23.808;2022-12-29T15:48:24;96284.91;;;5.63;79.01
24160;BME280;62385;41.594;23.808;2022-12-29T15:50:51;96287.53;;;5.63;79.13
24160;BME280;62385;41.594;23.808;2022-12-29T15:53:45;96291.22;;;5.72;79.63
24160;BME280;62385;41.594;23.808;2022-12-29T15:56:12;96287.06;;;5.58;79.24
24160;BME280;62385;41.594;23.808;2022-12-29T15:58:47;96286.47;;;5.54;79.09
24160;BME280;62385;41.594;23.808;2022-12-29T16:03:56;96284.44;;;5.25;79.70
24160;BME280;62385;41.594;23.808;2022-12-29T16:06:59;96295.19;;;5.22;79.63